createdAt,value
2017-12-23T00:00:48.130Z,95.10
2017-12-23T00:03:16.449Z,95.17
2017-12-23T00:05:45.762Z,95.12
2017-12-23T00:08:14.091Z,95.02
2017-12-23T00:10:42.438Z,94.64
2017-12-23T00:13:10.766Z,94.69
2017-12-23T00:15:39.114Z,94.40
2017-12-23T00:18:07.417Z,94.07
2017-12-23T00:20:35.774Z,94.19
2017-12-23T00:23:04.102Z,94.44
2017-12-23T00:25:32.457Z,94.32
2017-12-23T00:28:00.789Z,94.12
2017-12-23T00:30:29.146Z,94.02
2017-12-23T00:32:57.473Z,94.09
2017-12-23T00:35:25.825Z,93.96
2017-12-23T00:37:54.157Z,93.87
2017-12-23T00:40:22.513Z,93.38
2017-12-23T00:42:50.850Z,93.27
2017-12-23T00:45:19.193Z,93.01
2017-12-23T00:47:47.529Z,92.97
2017-12-23T00:50:21.885Z,92.94
2017-12-23T00:52:50.222Z,93.29
2017-12-23T00:55:19.532Z,93.51
2017-12-23T00:57:47.854Z,92.99
2017-12-23T01:00:16.202Z,93.03
2017-12-23T01:02:44.533Z,93.72
2017-12-23T01:05:12.878Z,94.25
2017-12-23T01:07:41.209Z,94.93
2017-12-23T01:10:09.570Z,95.66
2017-12-23T01:12:37.894Z,96.64
2017-12-23T01:15:06.247Z,96.90
2017-12-23T01:17:34.582Z,97.49
2017-12-23T01:20:02.934Z,97.76
2017-12-23T01:22:31.254Z,97.86
2017-12-23T01:24:59.626Z,97.90
2017-12-23T01:27:27.958Z,97.96
2017-12-23T01:29:56.315Z,98.07
2017-12-23T01:32:24.662Z,98.08
2017-12-23T01:34:53.766Z,98.04
2017-12-23T01:37:22.164Z,97.86
2017-12-23T01:39:50.443Z,97.86
2017-12-23T01:42:18.786Z,97.81
2017-12-23T01:44:47.114Z,97.90
2017-12-23T01:47:15.461Z,98.15
2017-12-23T01:49:43.793Z,98.26
2017-12-23T01:52:12.142Z,98.33
2017-12-23T01:54:40.465Z,98.50
2017-12-23T01:57:08.880Z,98.51
2017-12-23T01:59:37.201Z,98.73
2017-12-23T02:02:05.559Z,98.77
2017-12-23T02:04:33.925Z,98.76
2017-12-23T02:07:02.281Z,98.85
2017-12-23T02:09:30.606Z,98.94
2017-12-23T02:11:58.952Z,98.97
2017-12-23T02:14:27.281Z,99.23
2017-12-23T02:16:55.625Z,99.25
2017-12-23T02:19:23.954Z,99.41
2017-12-23T02:21:52.302Z,99.50
2017-12-23T02:24:20.630Z,99.57
2017-12-23T02:26:48.986Z,99.53
2017-12-23T02:29:17.313Z,99.48
2017-12-23T02:31:45.670Z,99.38
2017-12-23T02:34:14.002Z,99.33
2017-12-23T02:36:42.346Z,99.21
2017-12-23T02:39:10.679Z,99.34
2017-12-23T02:41:39.026Z,99.39
2017-12-23T02:44:07.355Z,99.51
2017-12-23T02:46:35.710Z,99.48
2017-12-23T02:49:04.043Z,99.43
2017-12-23T02:51:32.394Z,99.47
2017-12-23T02:54:00.727Z,99.34
2017-12-23T02:56:29.077Z,99.34
2017-12-23T02:58:57.403Z,99.31
2017-12-23T03:01:25.746Z,99.17
2017-12-23T03:03:54.076Z,99.05
2017-12-23T03:06:22.422Z,99.08
2017-12-23T03:08:50.754Z,99.17
2017-12-23T03:11:19.106Z,99.30
2017-12-23T03:13:47.438Z,99.34
2017-12-23T03:16:15.794Z,99.33
2017-12-23T03:18:44.121Z,99.37
2017-12-23T03:21:12.493Z,99.46
2017-12-23T03:23:40.825Z,99.62
2017-12-23T03:26:09.169Z,99.69
2017-12-23T03:28:37.500Z,99.75
2017-12-23T03:31:05.898Z,99.70
2017-12-23T03:33:34.213Z,99.70
2017-12-23T03:36:02.549Z,99.78
2017-12-23T03:38:30.902Z,99.84
2017-12-23T03:40:59.238Z,99.91
2017-12-23T03:43:27.594Z,99.85
2017-12-23T03:45:55.926Z,100.00
2017-12-23T03:48:24.285Z,100.00
2017-12-23T03:50:52.618Z,100.00
2017-12-23T03:53:20.978Z,100.00
2017-12-23T03:55:49.320Z,100.00
2017-12-23T03:58:17.674Z,100.00
2017-12-23T04:00:46.005Z,100.00
2017-12-23T04:03:14.366Z,100.00
2017-12-23T04:05:42.703Z,100.00
2017-12-23T04:08:11.577Z,100.00
2017-12-23T04:10:39.914Z,100.00
2017-12-23T04:13:08.265Z,100.00
2017-12-23T04:15:36.605Z,100.00
2017-12-23T04:18:04.975Z,100.00
2017-12-23T04:20:33.314Z,100.00
2017-12-23T04:23:01.673Z,100.00
2017-12-23T04:25:30.010Z,100.00
2017-12-23T04:27:58.372Z,100.00
2017-12-23T04:30:26.710Z,100.00
2017-12-23T04:32:55.061Z,100.00
2017-12-23T04:35:23.402Z,100.00
2017-12-23T04:37:51.769Z,100.00
2017-12-23T04:40:20.111Z,100.00
2017-12-23T04:42:48.466Z,100.00
2017-12-23T04:45:16.808Z,100.00
2017-12-23T04:47:45.171Z,100.00
2017-12-23T04:50:13.497Z,100.00
2017-12-23T04:52:41.857Z,100.00
2017-12-23T04:55:10.193Z,100.00
2017-12-23T04:57:38.553Z,100.00
2017-12-23T05:00:06.885Z,100.00
2017-12-23T05:02:35.247Z,100.00
2017-12-23T05:05:03.587Z,100.00
2017-12-23T05:07:31.953Z,100.00
2017-12-23T05:10:00.286Z,100.00
2017-12-23T05:12:28.706Z,100.00
2017-12-23T05:14:57.013Z,100.00
2017-12-23T05:17:25.370Z,100.00
2017-12-23T05:19:53.705Z,100.00
2017-12-23T05:22:22.057Z,100.00
2017-12-23T05:24:50.393Z,100.00
2017-12-23T05:27:18.756Z,100.00
2017-12-23T05:29:47.078Z,100.00
2017-12-23T05:32:15.458Z,100.00
2017-12-23T05:34:43.789Z,100.00
2017-12-23T05:37:12.126Z,100.00
2017-12-23T05:39:40.477Z,100.00
2017-12-23T05:42:08.810Z,100.00
2017-12-23T05:44:37.157Z,100.00
2017-12-23T05:47:05.485Z,100.00
2017-12-23T05:49:33.846Z,100.00
2017-12-23T05:52:02.197Z,100.00
2017-12-23T05:54:30.541Z,100.00
2017-12-23T05:56:58.878Z,100.00
2017-12-23T05:59:27.234Z,100.00
2017-12-23T06:01:55.637Z,100.00
2017-12-23T06:04:23.990Z,100.00
2017-12-23T06:06:52.326Z,100.00
2017-12-23T06:09:20.688Z,100.00
2017-12-23T06:11:49.013Z,100.00
2017-12-23T06:14:17.367Z,100.00
2017-12-23T06:16:45.702Z,100.00
2017-12-23T06:19:14.063Z,100.00
2017-12-23T06:21:42.396Z,100.00
2017-12-23T06:24:10.761Z,100.00
2017-12-23T06:26:39.078Z,100.00
2017-12-23T06:29:07.438Z,100.00
2017-12-23T06:31:35.781Z,100.00
2017-12-23T06:34:04.126Z,100.00
2017-12-23T06:36:32.463Z,100.00
2017-12-23T06:39:00.810Z,100.00
2017-12-23T06:41:29.142Z,100.00
2017-12-23T06:43:57.538Z,100.00
2017-12-23T06:46:25.830Z,100.00
2017-12-23T06:48:54.179Z,100.00
2017-12-23T06:51:22.502Z,100.00
2017-12-23T06:53:50.849Z,100.00
2017-12-23T06:56:19.183Z,100.00
2017-12-23T06:58:47.555Z,99.98
2017-12-23T07:01:15.854Z,100.00
2017-12-23T07:03:44.197Z,100.00
2017-12-23T07:06:12.528Z,100.00
2017-12-23T07:08:40.870Z,100.00
2017-12-23T07:11:09.194Z,99.93
2017-12-23T07:13:37.542Z,100.00
2017-12-23T07:16:05.870Z,100.00
2017-12-23T07:18:34.214Z,99.93
2017-12-23T07:21:02.538Z,99.77
2017-12-23T07:23:30.882Z,99.79
2017-12-23T07:25:59.206Z,99.61
2017-12-23T07:28:27.551Z,99.42
2017-12-23T07:30:55.886Z,99.25
2017-12-23T07:33:24.237Z,99.26
2017-12-23T07:35:52.558Z,99.21
2017-12-23T07:38:20.882Z,99.07
2017-12-23T07:43:23.737Z,99.23
2017-12-23T07:45:52.083Z,99.17
2017-12-23T07:48:20.394Z,99.17
2017-12-23T07:50:48.741Z,99.17
2017-12-23T07:53:17.058Z,99.24
2017-12-23T07:55:45.398Z,99.29
2017-12-23T07:58:13.714Z,99.46
2017-12-23T08:00:42.062Z,99.56
2017-12-23T08:03:10.387Z,99.63
2017-12-23T08:05:38.729Z,99.72
2017-12-23T08:08:07.050Z,99.81
2017-12-23T08:10:35.392Z,99.78
2017-12-23T08:13:03.882Z,99.88
2017-12-23T08:15:32.969Z,100.00
2017-12-23T08:18:01.407Z,100.00
2017-12-23T08:20:30.817Z,100.00
2017-12-23T08:22:59.158Z,100.00
2017-12-23T08:25:28.418Z,100.00
2017-12-23T08:27:56.963Z,100.00
2017-12-23T08:30:25.311Z,99.95
2017-12-23T08:32:53.642Z,99.89
2017-12-23T08:35:21.994Z,99.79
2017-12-23T08:37:50.318Z,99.69
2017-12-23T08:40:18.670Z,99.64
2017-12-23T08:42:47.015Z,99.64
2017-12-23T08:45:16.453Z,99.66
2017-12-23T08:47:44.761Z,99.63
2017-12-23T08:50:13.122Z,99.73
2017-12-23T08:52:41.450Z,99.72
2017-12-23T08:55:09.848Z,99.74
2017-12-23T08:57:38.378Z,99.83
2017-12-23T09:00:06.727Z,99.76
2017-12-23T09:02:35.063Z,99.60
2017-12-23T09:05:03.471Z,99.66
2017-12-23T09:07:31.762Z,99.80
2017-12-23T09:10:00.217Z,99.83
2017-12-23T09:12:28.585Z,99.81
2017-12-23T09:14:56.935Z,99.95
2017-12-23T09:17:25.276Z,100.00
2017-12-23T09:19:54.558Z,100.00
2017-12-23T09:22:23.050Z,100.00
2017-12-23T09:24:51.418Z,100.00
2017-12-23T09:27:19.758Z,100.00
2017-12-23T09:29:48.300Z,100.00
2017-12-23T09:32:17.170Z,100.00
2017-12-23T09:34:45.898Z,100.00
2017-12-23T09:37:14.547Z,100.00
2017-12-23T09:39:43.691Z,100.00
2017-12-23T09:42:12.805Z,100.00
2017-12-23T09:44:41.521Z,100.00
2017-12-23T09:47:10.215Z,99.90
2017-12-23T09:49:39.351Z,99.70
2017-12-23T09:52:08.062Z,99.49
2017-12-23T09:54:36.654Z,99.35
2017-12-23T09:57:05.815Z,99.13
2017-12-23T09:59:34.444Z,99.00
2017-12-23T10:02:05.256Z,98.75
2017-12-23T10:04:33.880Z,98.54
2017-12-23T10:07:02.472Z,98.42
2017-12-23T10:09:31.160Z,98.14
2017-12-23T10:11:59.901Z,97.96
2017-12-23T10:14:28.510Z,97.54
2017-12-23T10:16:58.934Z,97.47
2017-12-23T10:19:27.618Z,97.36
2017-12-23T10:21:56.421Z,97.27
2017-12-23T10:24:26.485Z,97.15
2017-12-23T10:26:55.132Z,97.12
2017-12-23T10:29:23.775Z,96.98
2017-12-23T10:31:52.410Z,96.87
2017-12-23T10:34:21.017Z,96.93
2017-12-23T10:36:49.789Z,96.91
2017-12-23T10:39:18.446Z,96.94
2017-12-23T10:41:47.146Z,97.23
2017-12-23T10:44:15.798Z,97.23
2017-12-23T10:46:45.311Z,97.37
2017-12-23T10:49:13.897Z,97.50
2017-12-23T10:51:42.596Z,97.50
2017-12-23T10:54:11.179Z,97.54
2017-12-23T10:56:39.852Z,97.64
2017-12-23T10:59:08.529Z,97.48
2017-12-23T11:01:37.178Z,97.34
2017-12-23T11:04:05.856Z,97.38
2017-12-23T11:06:34.467Z,97.56
2017-12-23T11:09:03.748Z,97.49
2017-12-23T11:11:32.446Z,97.54
2017-12-23T11:14:01.022Z,97.49
2017-12-23T11:16:30.664Z,97.42
2017-12-23T11:18:59.315Z,97.17
2017-12-23T11:21:28.150Z,97.04
2017-12-23T11:23:56.829Z,96.94
2017-12-23T11:26:25.433Z,96.89
2017-12-23T11:28:54.839Z,96.77
2017-12-23T11:31:23.944Z,96.73
2017-12-23T11:33:53.406Z,96.55
2017-12-23T11:36:22.059Z,96.55
2017-12-23T11:38:50.739Z,96.50
2017-12-23T11:41:19.666Z,96.38
2017-12-23T11:43:48.271Z,96.11
2017-12-23T11:46:17.278Z,96.07
2017-12-23T11:48:47.698Z,95.86
2017-12-23T11:51:16.677Z,95.71
2017-12-23T11:53:46.475Z,95.29
2017-12-23T11:56:15.133Z,95.21
2017-12-23T11:58:43.768Z,95.30
2017-12-23T12:01:18.486Z,95.15
2017-12-23T12:03:47.115Z,94.76
2017-12-23T12:06:15.818Z,94.81
2017-12-23T12:08:44.474Z,94.75
2017-12-23T12:11:13.084Z,94.78
2017-12-23T12:13:42.541Z,94.86
2017-12-23T12:16:11.351Z,94.61
2017-12-23T12:18:41.637Z,94.36
2017-12-23T12:21:10.823Z,94.23
2017-12-23T12:23:39.457Z,94.37
2017-12-23T12:26:08.098Z,93.99
2017-12-23T12:28:36.928Z,93.78
2017-12-23T12:31:06.435Z,93.59
2017-12-23T12:33:35.095Z,93.43
2017-12-23T12:36:03.649Z,93.37
2017-12-23T12:38:32.202Z,93.16
2017-12-23T12:41:00.764Z,92.95
2017-12-23T12:43:30.932Z,93.25
2017-12-23T12:45:59.553Z,93.29
2017-12-23T12:48:28.189Z,93.30
2017-12-23T12:50:56.784Z,93.29
2017-12-23T12:53:25.535Z,93.00
2017-12-23T12:55:54.172Z,92.66
2017-12-23T12:58:22.908Z,92.70
2017-12-23T13:00:51.496Z,92.79
2017-12-23T13:03:20.177Z,92.25
2017-12-23T13:05:49.345Z,91.94
2017-12-23T13:08:18.716Z,92.22
2017-12-23T13:10:47.380Z,92.45
2017-12-23T13:13:16.074Z,92.31
2017-12-23T13:15:44.617Z,92.10
2017-12-23T13:18:13.190Z,91.96
2017-12-23T13:20:41.788Z,92.05
2017-12-23T13:23:10.405Z,92.05
2017-12-23T13:25:40.742Z,92.01
2017-12-23T13:28:09.328Z,91.83
2017-12-23T13:30:37.841Z,91.92
2017-12-23T13:33:06.330Z,91.95
2017-12-23T13:35:34.843Z,91.89
2017-12-23T13:38:03.400Z,91.66
2017-12-23T13:40:31.945Z,91.54
2017-12-23T13:43:00.488Z,91.04
2017-12-23T13:45:29.037Z,91.27
2017-12-23T13:47:57.578Z,91.12
2017-12-23T13:50:26.027Z,91.44
2017-12-23T13:52:54.581Z,91.24
2017-12-23T13:55:23.206Z,91.28
2017-12-23T13:57:51.786Z,91.34
2017-12-23T14:00:20.248Z,91.04
2017-12-23T14:02:48.859Z,90.98
2017-12-23T14:05:17.422Z,91.13
2017-12-23T14:07:46.008Z,90.91
2017-12-23T14:10:14.557Z,91.03
2017-12-23T14:12:43.264Z,91.00
2017-12-23T14:15:11.790Z,90.98
2017-12-23T14:17:40.470Z,90.99
2017-12-23T14:20:09.110Z,91.06
2017-12-23T14:22:37.781Z,90.93
2017-12-23T14:25:06.625Z,91.31
2017-12-23T14:27:35.202Z,91.08
2017-12-23T14:30:03.718Z,91.07
2017-12-23T14:32:32.330Z,91.24
2017-12-23T14:35:00.902Z,91.08
2017-12-23T14:37:29.563Z,91.31
2017-12-23T14:39:58.139Z,91.25
2017-12-23T14:42:26.894Z,91.19
2017-12-23T14:44:55.557Z,91.19
2017-12-23T14:47:24.116Z,90.85
2017-12-23T14:49:52.783Z,90.84
2017-12-23T14:52:21.967Z,91.10
2017-12-23T14:54:51.575Z,91.47
2017-12-23T14:57:20.213Z,91.32
2017-12-23T14:59:48.769Z,91.41
2017-12-23T15:02:17.413Z,91.28
2017-12-23T15:04:46.051Z,91.47
2017-12-23T15:07:14.654Z,91.24
2017-12-23T15:09:43.314Z,91.12
2017-12-23T15:12:11.902Z,90.97
2017-12-23T15:14:42.038Z,91.06
2017-12-23T15:17:12.551Z,91.11
2017-12-23T15:19:41.111Z,91.16
2017-12-23T15:22:09.701Z,91.34
2017-12-23T15:24:39.193Z,91.27
2017-12-23T15:27:07.821Z,91.20
2017-12-23T15:29:37.221Z,91.13
2017-12-23T15:32:05.861Z,91.26
2017-12-23T15:34:34.497Z,91.11
2017-12-23T15:37:03.129Z,91.32
2017-12-23T15:39:31.844Z,91.21
2017-12-23T15:42:00.373Z,91.47
2017-12-23T15:44:28.999Z,91.50
2017-12-23T15:46:58.378Z,91.59
2017-12-23T15:49:27.133Z,91.62
2017-12-23T15:51:55.838Z,91.40
2017-12-23T15:54:25.555Z,91.29
2017-12-23T15:56:54.289Z,91.17
2017-12-23T15:59:22.960Z,91.57
2017-12-23T16:01:51.631Z,91.67
2017-12-23T16:04:20.341Z,91.75
2017-12-23T16:06:49.482Z,91.93
2017-12-23T16:09:18.084Z,91.87
2017-12-23T16:11:46.697Z,91.86
2017-12-23T16:14:15.697Z,92.04
2017-12-23T16:16:44.403Z,92.02
2017-12-23T16:19:13.021Z,91.90
2017-12-23T16:21:41.649Z,91.88
2017-12-23T16:24:10.886Z,92.15
2017-12-23T16:26:39.508Z,91.94
2017-12-23T16:29:08.246Z,91.96
2017-12-23T16:31:37.054Z,92.07
2017-12-23T16:34:05.681Z,91.97
2017-12-23T16:36:34.244Z,92.10
2017-12-23T16:39:02.942Z,92.24
2017-12-23T16:41:31.576Z,92.12
2017-12-23T16:44:00.989Z,91.86
2017-12-23T16:46:29.687Z,92.24
2017-12-23T16:48:59.093Z,92.04
2017-12-23T16:51:27.860Z,92.21
2017-12-23T16:53:56.555Z,92.20
2017-12-23T16:56:25.176Z,92.33
2017-12-23T16:58:54.313Z,92.53
2017-12-23T17:01:22.913Z,92.40
2017-12-23T17:03:53.221Z,92.28
2017-12-23T17:06:21.964Z,92.50
2017-12-23T17:08:51.382Z,92.43
2017-12-23T17:11:20.404Z,92.54
2017-12-23T17:13:49.120Z,92.41
2017-12-23T17:16:17.719Z,92.46
2017-12-23T17:18:46.305Z,92.59
2017-12-23T17:21:14.937Z,92.53
2017-12-23T17:23:43.842Z,92.86
2017-12-23T17:26:13.606Z,92.99
2017-12-23T17:28:55.080Z,92.88
2017-12-23T17:31:24.471Z,92.79
2017-12-23T17:33:53.200Z,92.79
2017-12-23T17:36:22.842Z,92.92
2017-12-23T17:38:52.819Z,92.91
2017-12-23T17:41:21.488Z,93.25
2017-12-23T17:43:51.040Z,93.31
2017-12-23T17:46:19.799Z,93.38
2017-12-23T17:48:48.371Z,93.35
2017-12-23T17:51:18.231Z,93.32
2017-12-23T17:53:46.778Z,93.26
2017-12-23T17:56:15.956Z,93.14
2017-12-23T17:58:48.744Z,93.54
2017-12-23T18:01:17.658Z,93.16
2017-12-23T18:03:46.038Z,93.26
2017-12-23T18:06:14.637Z,93.31
2017-12-23T18:08:43.267Z,93.45
2017-12-23T18:11:11.879Z,93.30
2017-12-23T18:13:40.561Z,93.15
2017-12-23T18:16:09.899Z,93.25
2017-12-23T18:18:38.575Z,93.20
2017-12-23T18:21:07.239Z,93.01
2017-12-23T18:23:35.988Z,92.94
2017-12-23T18:26:05.538Z,93.19
2017-12-23T18:28:34.119Z,93.18
2017-12-23T18:31:02.750Z,93.28
2017-12-23T18:33:32.061Z,93.11
2017-12-23T18:36:00.677Z,93.20
2017-12-23T18:38:29.271Z,93.10
2017-12-23T18:40:58.683Z,92.84
2017-12-23T18:43:27.269Z,92.79
2017-12-23T18:45:55.892Z,92.73
2017-12-23T18:48:24.451Z,92.56
2017-12-23T18:50:53.133Z,92.70
2017-12-23T18:53:21.843Z,92.65
2017-12-23T18:55:50.516Z,92.93
2017-12-23T18:58:19.117Z,92.94
2017-12-23T19:00:48.256Z,92.93
2017-12-23T19:03:16.824Z,92.76
2017-12-23T19:05:45.679Z,92.66
2017-12-23T19:08:14.238Z,92.61
2017-12-23T19:10:43.459Z,92.80
2017-12-23T19:13:12.052Z,92.75
2017-12-23T19:15:40.804Z,92.52
2017-12-23T19:18:09.485Z,92.49
2017-12-23T19:20:38.233Z,92.71
2017-12-23T19:23:06.852Z,92.57
2017-12-23T19:25:35.576Z,92.62
2017-12-23T19:28:04.371Z,92.53
2017-12-23T19:30:33.839Z,92.64
2017-12-23T19:33:02.431Z,92.76
2017-12-23T19:35:31.794Z,92.58
2017-12-23T19:38:00.411Z,92.50
2017-12-23T19:40:29.089Z,92.18
2017-12-23T19:42:57.676Z,92.06
2017-12-23T19:45:26.374Z,92.15
2017-12-23T19:47:54.770Z,92.14
2017-12-23T19:50:23.145Z,92.26
2017-12-23T19:52:51.474Z,92.54
2017-12-23T19:58:13.298Z,92.68
2017-12-23T20:00:41.658Z,92.91
2017-12-23T20:03:09.991Z,92.92
2017-12-23T20:05:38.343Z,93.19
2017-12-23T20:08:07.661Z,93.38
2017-12-23T20:10:36.018Z,93.53
2017-12-23T20:13:04.354Z,93.69
2017-12-23T20:15:32.704Z,93.92
2017-12-23T20:18:01.125Z,93.77
2017-12-23T20:20:29.451Z,93.92
2017-12-23T20:22:57.995Z,93.97
2017-12-23T20:25:27.211Z,94.03
2017-12-23T20:27:56.370Z,94.21
2017-12-23T20:30:24.713Z,94.12
2017-12-23T20:32:53.250Z,94.35
2017-12-23T20:35:21.697Z,94.47
2017-12-23T20:37:50.075Z,94.61
2017-12-23T20:40:18.414Z,94.68
2017-12-23T20:42:46.777Z,94.68
2017-12-23T20:45:16.110Z,94.67
2017-12-23T20:47:44.467Z,94.71
2017-12-23T20:50:12.827Z,94.56
2017-12-23T20:52:41.338Z,94.72
2017-12-23T20:55:09.673Z,94.71
2017-12-23T20:57:38.036Z,94.87
2017-12-23T21:00:06.366Z,95.15
2017-12-23T21:02:34.806Z,95.25
2017-12-23T21:05:03.258Z,95.21
2017-12-23T21:07:31.610Z,95.29
2017-12-23T21:09:59.943Z,95.34
2017-12-23T21:12:28.344Z,95.38
2017-12-23T21:14:56.698Z,95.41
2017-12-23T21:17:25.057Z,95.37
2017-12-23T21:19:53.388Z,95.50
2017-12-23T21:22:21.734Z,95.49
2017-12-23T21:24:50.097Z,95.65
2017-12-23T21:27:18.775Z,95.52
2017-12-23T21:29:47.102Z,95.93
2017-12-23T21:32:15.454Z,95.75
2017-12-23T21:34:43.834Z,95.57
2017-12-23T21:37:12.402Z,95.67
2017-12-23T21:39:40.741Z,95.64
2017-12-23T21:42:09.086Z,95.62
2017-12-23T21:44:37.421Z,95.54
2017-12-23T21:47:06.271Z,95.73
2017-12-23T21:49:34.589Z,95.81
2017-12-23T21:52:04.263Z,95.87
2017-12-23T21:54:32.595Z,95.76
2017-12-23T21:57:00.984Z,95.57
2017-12-23T21:59:29.330Z,95.70
2017-12-23T22:01:57.678Z,95.70
2017-12-23T22:04:26.006Z,95.71
2017-12-23T22:06:54.358Z,95.66
2017-12-23T22:09:22.715Z,95.75
2017-12-23T22:11:51.046Z,95.61
2017-12-23T22:14:19.378Z,95.63
2017-12-23T22:16:47.730Z,95.54
2017-12-23T22:19:16.064Z,95.60
2017-12-23T22:21:44.415Z,95.68
2017-12-23T22:24:12.757Z,95.61
2017-12-23T22:26:41.091Z,95.37
2017-12-23T22:29:09.439Z,95.43
2017-12-23T22:31:37.776Z,95.32
2017-12-23T22:34:06.122Z,95.40
2017-12-23T22:36:34.453Z,95.56
2017-12-23T22:39:02.806Z,95.51
2017-12-23T22:41:31.133Z,95.52
2017-12-23T22:43:59.534Z,95.77
2017-12-23T22:46:27.815Z,95.73
2017-12-23T22:48:56.162Z,95.55
2017-12-23T22:51:24.490Z,95.18
2017-12-23T22:53:52.842Z,95.09
2017-12-23T22:56:21.170Z,95.03
2017-12-23T22:58:49.518Z,94.89
2017-12-23T23:01:17.922Z,94.60
2017-12-23T23:03:46.274Z,94.48
2017-12-23T23:06:14.601Z,94.47
2017-12-23T23:08:42.957Z,94.00
2017-12-23T23:11:11.277Z,93.79
2017-12-23T23:13:39.625Z,93.65
2017-12-23T23:16:07.955Z,93.44
2017-12-23T23:18:36.302Z,92.96
2017-12-23T23:21:04.629Z,92.24
2017-12-23T23:23:32.978Z,92.08
2017-12-23T23:26:01.306Z,91.88
2017-12-23T23:28:29.659Z,91.68
2017-12-23T23:30:57.987Z,91.43
2017-12-23T23:33:26.334Z,91.33
2017-12-23T23:35:54.675Z,91.19
2017-12-23T23:38:23.029Z,91.02
2017-12-23T23:40:51.357Z,90.72
2017-12-23T23:43:19.706Z,90.76
2017-12-23T23:45:48.030Z,90.66
2017-12-23T23:48:16.374Z,90.72
2017-12-23T23:50:44.703Z,90.82
2017-12-23T23:53:13.050Z,90.78
2017-12-23T23:55:41.379Z,90.62
2017-12-23T23:58:09.743Z,90.54
